createdAt,value
2022-09-28T06:50:14.472Z,100.00
2022-09-28T06:55:41.327Z,100.00
2022-09-28T07:00:45.160Z,100.00
2022-09-28T07:05:52.608Z,100.00
2022-09-28T07:11:13.599Z,100.00
2022-09-28T07:17:05.328Z,100.00
2022-09-28T07:22:05.793Z,100.00
2022-09-28T07:27:11.159Z,100.00
2022-09-28T07:32:32.180Z,100.00
2022-09-28T07:37:59.512Z,100.00
2022-09-28T07:43:07.648Z,100.00
2022-09-28T07:48:16.093Z,100.00
2022-09-28T07:53:40.026Z,100.00
2022-09-28T07:58:54.698Z,100.00
2022-09-28T08:04:16.943Z,100.00
2022-09-28T08:09:24.179Z,100.00
2022-09-28T08:14:46.734Z,100.00
2022-09-28T08:20:27.766Z,100.00
2022-09-28T08:25:35.675Z,100.00
2022-09-28T08:30:40.955Z,100.00
2022-09-28T08:36:06.153Z,100.00
2022-09-28T08:41:43.684Z,100.00
2022-09-28T08:47:07.958Z,100.00
2022-09-28T08:52:40.334Z,100.00
2022-09-28T08:58:16.638Z,100.00
2022-09-28T09:03:28.869Z,100.00
2022-09-28T09:09:06.871Z,100.00
2022-09-28T09:15:12.072Z,100.00
2022-09-28T09:20:27.074Z,100.00
2022-09-28T09:25:46.151Z,97.67
2022-09-28T09:30:59.942Z,97.18
2022-09-28T09:36:35.638Z,97.91
2022-09-28T09:42:24.050Z,96.73
2022-09-28T09:48:09.628Z,94.74
2022-09-28T09:53:42.334Z,92.67
2022-09-28T09:58:54.527Z,87.55
2022-09-28T10:10:44.697Z,85.36
2022-09-28T10:15:54.072Z,80.99
2022-09-28T10:21:13.741Z,80.24
2022-09-28T10:26:33.744Z,79.49
2022-09-28T10:31:40.979Z,76.65
2022-09-28T10:36:58.462Z,76.39
2022-09-28T10:42:18.756Z,78.06
2022-09-28T10:47:25.663Z,76.13
2022-09-28T10:52:37.003Z,76.86
2022-09-28T10:58:13.080Z,78.08
2022-09-28T11:03:30.347Z,77.41
2022-09-28T11:08:41.467Z,79.80
2022-09-28T11:13:50.504Z,80.97
2022-09-28T11:19:34.456Z,81.18
2022-09-28T11:24:49.479Z,81.20
2022-09-28T11:30:00.513Z,84.60
2022-09-28T11:35:19.783Z,84.79
2022-09-28T11:40:36.631Z,95.03
2022-09-28T11:45:53.606Z,95.79
2022-09-28T11:51:03.753Z,97.77
2022-09-28T11:56:18.223Z,100.00
2022-09-28T12:01:30.086Z,98.14
2022-09-28T12:07:05.062Z,100.00
2022-09-28T12:12:23.251Z,100.00
2022-09-28T12:17:33.496Z,96.36
2022-09-28T12:22:45.358Z,87.72
2022-09-28T12:27:56.705Z,91.08
2022-09-28T12:33:05.301Z,88.69
2022-09-28T12:38:29.241Z,82.09
2022-09-28T12:43:53.146Z,79.83
2022-09-28T12:50:07.241Z,81.03
2022-09-28T12:54:58.059Z,82.66
2022-09-28T13:00:05.711Z,84.29
2022-09-28T13:05:24.427Z,82.59
2022-09-28T13:10:34.707Z,83.05
2022-09-28T13:15:47.208Z,81.79
2022-09-28T13:21:09.772Z,79.87
2022-09-28T13:26:28.086Z,83.17
2022-09-28T13:31:37.145Z,82.26
2022-09-28T13:37:12.058Z,84.77
2022-09-28T13:42:29.244Z,82.32
2022-09-28T13:48:04.818Z,80.87
2022-09-28T13:53:19.705Z,85.18
2022-09-28T13:58:27.729Z,82.04
2022-09-28T14:03:45.091Z,82.04
2022-09-28T14:09:10.577Z,79.90
2022-09-28T14:14:50.663Z,81.50
2022-09-28T14:19:57.565Z,82.69
2022-09-28T14:25:11.836Z,84.15
2022-09-28T14:30:23.301Z,83.25
2022-09-28T14:35:32.757Z,82.78
2022-09-28T14:41:12.881Z,82.15
2022-09-28T14:46:33.729Z,81.37
2022-09-28T14:52:06.531Z,82.17
2022-09-28T14:57:17.894Z,83.81
2022-09-28T15:02:26.192Z,83.11
2022-09-28T15:07:34.308Z,83.14
2022-09-28T15:12:37.868Z,85.27
2022-09-28T15:17:55.398Z,85.36
2022-09-28T15:23:01.930Z,84.30
2022-09-28T15:28:19.329Z,82.78
2022-09-28T15:33:50.418Z,82.95
2022-09-28T15:38:59.968Z,82.70
2022-09-28T15:44:29.595Z,84.05
2022-09-28T15:49:42.829Z,84.72
2022-09-28T15:54:46.623Z,85.58
2022-09-28T15:59:56.856Z,86.01
2022-09-28T16:05:05.260Z,87.02
2022-09-28T16:10:33.742Z,88.22
2022-09-28T16:15:39.295Z,89.21
2022-09-28T16:20:45.741Z,92.20
2022-09-28T16:25:56.443Z,94.42
2022-09-28T16:31:03.116Z,100.00
2022-09-28T16:36:13.422Z,100.00
2022-09-28T16:41:22.483Z,100.00
2022-09-28T16:46:34.488Z,100.00
2022-09-28T16:51:40.431Z,100.00
2022-09-28T16:56:44.089Z,100.00
2022-09-28T17:01:48.723Z,100.00
2022-09-28T17:06:56.618Z,100.00
2022-09-28T17:12:00.287Z,100.00
2022-09-28T17:17:09.757Z,100.00
2022-09-28T17:22:16.713Z,100.00
2022-09-28T17:27:21.665Z,100.00
2022-09-28T17:32:25.011Z,100.00
2022-09-28T17:37:29.906Z,100.00
2022-09-28T17:42:33.286Z,100.00
2022-09-28T17:47:36.779Z,100.00
2022-09-28T17:52:42.182Z,100.00
2022-09-28T17:57:48.120Z,100.00
2022-09-28T18:02:52.290Z,100.00
2022-09-28T18:07:58.085Z,100.00
2022-09-28T18:13:01.687Z,100.00
2022-09-28T18:18:09.525Z,100.00
2022-09-28T18:23:14.490Z,100.00
2022-09-28T18:28:17.981Z,100.00
2022-09-28T18:33:22.143Z,100.00
2022-09-28T18:38:28.515Z,100.00
2022-09-28T18:43:35.647Z,100.00
2022-09-28T18:48:40.553Z,100.00
2022-09-28T18:53:46.743Z,100.00
2022-09-28T18:58:51.649Z,100.00
2022-09-28T19:03:55.128Z,100.00
2022-09-28T19:09:00.155Z,100.00
2022-09-28T19:14:04.364Z,100.00
2022-09-28T19:19:12.818Z,100.00
2022-09-28T19:24:19.401Z,100.00
2022-09-28T19:29:23.673Z,100.00
2022-09-28T19:34:30.163Z,100.00
2022-09-28T19:39:35.336Z,100.00
2022-09-28T19:44:39.263Z,100.00
2022-09-28T19:49:43.091Z,100.00
2022-09-28T19:54:56.498Z,100.00
2022-09-28T20:00:03.979Z,100.00
2022-09-28T20:05:10.771Z,100.00
2022-09-28T20:10:15.793Z,100.00
2022-09-28T20:15:23.596Z,100.00
2022-09-28T20:20:28.282Z,100.00
2022-09-28T20:25:33.218Z,100.00
2022-09-28T20:30:38.428Z,100.00
2022-09-28T20:35:44.523Z,100.00
2022-09-28T20:40:50.188Z,100.00
2022-09-28T20:45:56.852Z,100.00
2022-09-28T20:51:03.028Z,100.00
2022-09-28T20:56:09.632Z,100.00
2022-09-28T21:01:17.150Z,100.00
2022-09-28T21:06:23.146Z,100.00
2022-09-28T21:11:29.736Z,100.00
2022-09-28T21:16:36.258Z,100.00
2022-09-28T21:21:40.026Z,100.00
2022-09-28T21:26:48.470Z,100.00
2022-09-28T21:31:51.997Z,100.00
2022-09-28T21:36:55.516Z,100.00
2022-09-28T21:42:00.416Z,100.00
2022-09-28T21:47:03.876Z,100.00
2022-09-28T21:52:09.392Z,100.00
